createdAt,value
2023-04-08T00:02:00.170Z,129.63
2023-04-08T00:04:27.207Z,134.85
2023-04-08T00:06:54.024Z,125.63
2023-04-08T00:09:21.134Z,129.90
2023-04-08T00:11:47.936Z,130.65
2023-04-08T00:14:14.675Z,125.88
2023-04-08T00:16:41.282Z,125.15
2023-04-08T00:19:08.731Z,138.07
2023-04-08T00:21:36.112Z,126.00
2023-04-08T00:24:02.797Z,159.60
2023-04-08T00:26:29.447Z,138.13
2023-04-08T00:28:56.119Z,154.27
2023-04-08T00:31:22.809Z,147.18
2023-04-08T00:33:50.734Z,146.68
2023-04-08T00:36:17.665Z,142.32
2023-04-08T00:38:44.349Z,149.82
2023-04-08T00:41:11.264Z,160.70
2023-04-08T00:43:40.792Z,146.63
2023-04-08T00:46:07.576Z,154.88
2023-04-08T00:48:34.481Z,142.10
2023-04-08T00:51:02.099Z,174.68
2023-04-08T00:53:31.536Z,150.23
2023-04-08T00:55:59.928Z,149.38
2023-04-08T00:58:27.196Z,153.35
2023-04-08T01:01:04.480Z,163.20
2023-04-08T01:03:50.541Z,151.88
2023-04-08T01:06:42.424Z,156.30
2023-04-08T01:09:10.669Z,145.85
2023-04-08T01:11:38.824Z,152.65
2023-04-08T01:14:07.328Z,167.15
2023-04-08T01:16:35.096Z,154.45
2023-04-08T01:19:04.932Z,171.07
2023-04-08T01:21:31.773Z,156.73
2023-04-08T01:24:10.137Z,165.68
2023-04-08T01:26:37.451Z,158.10
2023-04-08T01:29:12.924Z,189.77
2023-04-08T01:31:41.518Z,183.95
2023-04-08T01:34:09.062Z,189.32
2023-04-08T01:36:37.533Z,174.93
2023-04-08T01:39:05.932Z,180.95
2023-04-08T01:41:34.323Z,186.68
2023-04-08T01:44:01.110Z,213.80
2023-04-08T01:46:30.572Z,176.63
2023-04-08T01:48:57.695Z,163.20
2023-04-08T01:51:27.599Z,190.50
2023-04-08T01:53:54.371Z,186.70
2023-04-08T01:56:22.447Z,211.40
2023-04-08T01:58:52.635Z,180.60
2023-04-08T02:01:21.429Z,196.85
2023-04-08T02:03:52.223Z,190.63
2023-04-08T02:06:19.102Z,187.23
2023-04-08T02:08:46.028Z,199.35
2023-04-08T02:11:13.318Z,177.13
2023-04-08T02:13:40.333Z,185.13
2023-04-08T02:16:37.308Z,218.30
2023-04-08T02:19:10.554Z,225.52
2023-04-08T02:21:50.627Z,193.02
2023-04-08T02:24:17.867Z,196.65
2023-04-08T02:26:45.661Z,209.20
2023-04-08T02:29:13.690Z,232.35
2023-04-08T02:31:44.872Z,213.65
2023-04-08T02:34:22.060Z,199.13
2023-04-08T02:36:49.155Z,204.35
2023-04-08T02:39:16.602Z,211.40
2023-04-08T02:41:43.218Z,208.35
2023-04-08T02:44:10.457Z,214.30
2023-04-08T02:46:40.908Z,222.38
2023-04-08T02:49:07.608Z,220.52
2023-04-08T02:51:37.192Z,201.45
2023-04-08T02:54:04.925Z,243.68
2023-04-08T02:56:32.443Z,206.68
2023-04-08T02:59:02.972Z,264.25
2023-04-08T03:01:31.370Z,238.18
2023-04-08T03:03:58.334Z,236.68
2023-04-08T03:06:24.931Z,291.70
2023-04-08T03:08:51.955Z,252.20
2023-04-08T03:11:21.531Z,245.70
2023-04-08T03:13:48.178Z,245.32
2023-04-08T03:16:15.257Z,224.98
2023-04-08T03:18:42.220Z,240.93
2023-04-08T03:21:09.483Z,273.63
2023-04-08T03:23:36.858Z,216.23
2023-04-08T03:26:03.803Z,417.88
2023-04-08T03:28:31.199Z,211.93
2023-04-08T03:30:57.884Z,213.80
2023-04-08T03:33:24.799Z,238.68
2023-04-08T03:35:51.563Z,230.52
2023-04-08T03:38:18.502Z,219.93
2023-04-08T03:40:45.734Z,178.10
2023-04-08T03:43:14.278Z,226.95
2023-04-08T03:45:41.356Z,179.73
2023-04-08T03:48:08.427Z,234.52
2023-04-08T03:50:35.750Z,196.95
2023-04-08T03:53:02.290Z,259.63
2023-04-08T03:55:29.068Z,266.13
2023-04-08T03:57:55.861Z,381.10
2023-04-08T04:00:22.706Z,366.67
2023-04-08T04:02:49.466Z,282.20
2023-04-08T04:05:18.921Z,242.82
2023-04-08T04:07:45.661Z,254.32
2023-04-08T04:10:12.291Z,246.63
2023-04-08T04:12:38.865Z,263.95
2023-04-08T04:15:06.207Z,349.45
2023-04-08T04:17:32.999Z,324.48
2023-04-08T04:19:59.710Z,237.43
2023-04-08T04:22:26.221Z,211.93
2023-04-08T04:24:52.777Z,227.23
2023-04-08T04:27:19.377Z,276.42
2023-04-08T04:29:46.291Z,314.55
2023-04-08T04:32:13.174Z,301.63
2023-04-08T04:34:39.926Z,277.27
2023-04-08T04:37:06.563Z,286.17
2023-04-08T04:39:33.149Z,259.05
2023-04-08T04:41:59.853Z,297.83
2023-04-08T04:44:27.148Z,283.55
2023-04-08T04:46:53.829Z,302.42
2023-04-08T04:49:20.636Z,261.85
2023-04-08T04:51:47.209Z,307.67
2023-04-08T04:54:13.941Z,278.42
2023-04-08T04:56:40.813Z,273.83
2023-04-08T04:59:08.680Z,289.67
2023-04-08T05:01:35.428Z,298.73
2023-04-08T05:04:02.015Z,305.45
2023-04-08T05:06:28.619Z,275.92
2023-04-08T05:08:55.605Z,273.88
2023-04-08T05:11:22.227Z,287.75
2023-04-08T05:13:48.896Z,288.23
2023-04-08T05:16:16.496Z,284.45
2023-04-08T05:18:43.221Z,282.77
2023-04-08T05:21:09.876Z,288.48
2023-04-08T05:23:36.555Z,268.17
2023-04-08T05:26:03.338Z,260.67
2023-04-08T05:28:29.952Z,283.20
2023-04-08T05:30:56.688Z,279.08
2023-04-08T05:33:23.668Z,284.60
2023-04-08T05:35:50.515Z,293.40
2023-04-08T05:38:17.333Z,263.83
2023-04-08T05:40:43.900Z,255.23
2023-04-08T05:43:10.562Z,270.65
2023-04-08T05:45:37.413Z,243.63
2023-04-08T05:48:04.391Z,246.23
2023-04-08T05:50:31.484Z,263.83
2023-04-08T05:52:58.100Z,240.10
2023-04-08T05:55:24.740Z,244.20
2023-04-08T05:57:51.434Z,256.48
2023-04-08T06:00:18.456Z,247.57
2023-04-08T06:02:45.359Z,255.05
2023-04-08T06:05:12.079Z,257.33
2023-04-08T06:07:38.900Z,269.00
2023-04-08T06:10:07.067Z,264.65
2023-04-08T06:12:36.664Z,261.15
2023-04-08T06:15:04.373Z,292.27
2023-04-08T06:17:34.687Z,301.60
2023-04-08T06:20:03.540Z,310.10
2023-04-08T06:22:31.039Z,340.90
2023-04-08T06:24:57.679Z,346.83
2023-04-08T06:27:24.431Z,454.45
2023-04-08T06:29:52.022Z,394.70
2023-04-08T06:32:18.953Z,441.50
2023-04-08T06:34:46.119Z,331.10
2023-04-08T06:37:12.831Z,319.50
2023-04-08T06:39:39.420Z,301.92
2023-04-08T06:42:06.555Z,185.95
2023-04-08T06:44:45.690Z,222.18
2023-04-08T06:47:12.214Z,179.70
2023-04-08T06:49:38.882Z,200.23
2023-04-08T06:52:06.966Z,181.85
2023-04-08T06:54:33.568Z,199.75
2023-04-08T06:57:00.383Z,191.35
2023-04-08T06:59:26.969Z,200.70
2023-04-08T07:01:53.823Z,156.52
2023-04-08T07:04:20.924Z,244.07
2023-04-08T07:06:47.583Z,194.18
2023-04-08T07:09:14.205Z,185.00
2023-04-08T07:11:40.942Z,158.40
2023-04-08T07:14:07.525Z,127.80
2023-04-08T07:16:34.116Z,154.27
2023-04-08T07:19:00.684Z,114.72
2023-04-08T07:21:27.417Z,111.03
2023-04-08T07:23:54.062Z,108.65
2023-04-08T07:26:20.626Z,107.40
2023-04-08T07:28:47.245Z,122.60
2023-04-08T07:31:16.260Z,101.60
2023-04-08T07:33:43.361Z,93.32
2023-04-08T07:36:11.368Z,126.68
2023-04-08T07:38:41.061Z,78.25
2023-04-08T07:41:07.627Z,91.68
2023-04-08T07:43:34.561Z,99.80
2023-04-08T07:46:04.741Z,84.43
2023-04-08T07:48:32.114Z,75.22
2023-04-08T07:51:08.216Z,109.32
2023-04-08T07:53:37.436Z,83.97
2023-04-08T07:56:11.368Z,61.88
2023-04-08T07:58:38.703Z,56.33
2023-04-08T08:01:05.521Z,51.35
2023-04-08T08:03:48.525Z,58.10
2023-04-08T08:06:15.925Z,47.35
2023-04-08T08:08:42.773Z,50.17
2023-04-08T08:11:09.577Z,46.72
2023-04-08T08:13:38.730Z,50.15
2023-04-08T08:16:09.529Z,47.60
2023-04-08T08:18:37.041Z,48.65
2023-04-08T08:21:03.766Z,48.28
2023-04-08T08:23:30.502Z,44.20
2023-04-08T08:26:04.604Z,41.63
2023-04-08T08:28:31.460Z,42.47
2023-04-08T08:30:58.507Z,44.13
2023-04-08T08:33:26.041Z,42.88
2023-04-08T08:35:52.784Z,43.05
2023-04-08T08:38:19.663Z,44.03
2023-04-08T08:40:46.259Z,45.80
2023-04-08T08:43:12.930Z,50.42
2023-04-08T08:45:42.852Z,54.97
2023-04-08T08:48:09.628Z,52.90
2023-04-08T08:50:36.363Z,53.78
2023-04-08T08:53:03.618Z,61.10
2023-04-08T08:56:00.317Z,58.80
2023-04-08T08:58:21.511Z,66.35
2023-04-08T09:00:48.088Z,67.90
2023-04-08T09:03:21.932Z,69.35
2023-04-08T09:05:56.075Z,66.60
2023-04-08T09:08:32.424Z,73.15
2023-04-08T09:11:16.131Z,74.28
2023-04-08T09:13:45.004Z,78.07
2023-04-08T09:16:17.923Z,79.78
2023-04-08T09:18:46.025Z,80.18
2023-04-08T09:21:17.480Z,80.45
2023-04-08T09:23:44.969Z,81.32
2023-04-08T09:26:16.439Z,74.15
2023-04-08T09:28:44.847Z,82.22
2023-04-08T09:31:25.473Z,72.53
2023-04-08T09:33:57.652Z,68.57
2023-04-08T09:36:26.488Z,69.45
2023-04-08T09:38:54.915Z,67.43
2023-04-08T09:41:23.555Z,69.15
2023-04-08T09:43:52.493Z,64.30
2023-04-08T09:46:26.546Z,65.95
2023-04-08T09:48:59.169Z,66.43
2023-04-08T09:51:26.757Z,68.57
2023-04-08T09:54:00.668Z,63.55
2023-04-08T09:56:31.730Z,58.25
2023-04-08T09:59:00.476Z,56.58
2023-04-08T10:01:40.080Z,59.30
2023-04-08T10:04:16.077Z,55.67
2023-04-08T10:06:43.125Z,57.47
2023-04-08T10:09:10.476Z,55.35
2023-04-08T10:11:37.349Z,54.28
2023-04-08T10:14:04.036Z,53.85
2023-04-08T10:16:31.135Z,48.92
2023-04-08T10:18:58.079Z,45.13
2023-04-08T10:21:38.772Z,47.53
2023-04-08T10:24:11.621Z,74.68
2023-04-08T10:26:43.239Z,67.57
2023-04-08T10:29:19.158Z,67.65
2023-04-08T10:31:47.381Z,101.90
2023-04-08T10:34:22.697Z,60.08
2023-04-08T10:36:49.854Z,55.28
2023-04-08T10:39:16.936Z,76.53
2023-04-08T10:41:44.480Z,79.68
2023-04-08T10:44:21.441Z,56.13
2023-04-08T10:46:50.550Z,67.97
2023-04-08T10:49:17.664Z,59.67
2023-04-08T10:51:44.843Z,52.45
2023-04-08T10:54:20.508Z,52.00
2023-04-08T10:56:52.325Z,59.33
2023-04-08T10:59:32.818Z,61.67
2023-04-08T11:02:01.105Z,66.97
2023-04-08T11:04:28.091Z,63.88
2023-04-08T11:06:54.855Z,64.40
2023-04-08T11:09:21.564Z,60.15
2023-04-08T11:11:48.504Z,77.25
2023-04-08T11:14:19.672Z,82.53
2023-04-08T11:16:46.338Z,78.35
2023-04-08T11:19:13.741Z,81.88
2023-04-08T11:21:42.354Z,73.05
2023-04-08T11:24:13.349Z,69.90
2023-04-08T11:26:40.695Z,72.95
2023-04-08T11:29:12.744Z,71.95
2023-04-08T11:31:39.509Z,69.65
2023-04-08T11:34:06.256Z,70.82
2023-04-08T11:36:35.261Z,67.22
2023-04-08T11:39:07.062Z,63.72
2023-04-08T11:41:38.253Z,63.35
2023-04-08T11:44:17.425Z,71.43
2023-04-08T11:46:55.251Z,64.35
2023-04-08T11:49:22.012Z,63.50
2023-04-08T11:54:43.770Z,61.97
2023-04-08T11:57:10.561Z,65.28
2023-04-08T11:59:37.268Z,59.05
2023-04-08T12:02:06.906Z,62.67
2023-04-08T12:04:36.106Z,58.63
2023-04-08T12:07:02.821Z,57.38
2023-04-08T12:09:29.454Z,56.63
2023-04-08T12:11:56.790Z,52.78
2023-04-08T12:14:26.980Z,54.03
2023-04-08T12:16:55.214Z,52.78
2023-04-08T12:19:22.089Z,47.10
2023-04-08T12:21:48.714Z,43.10
2023-04-08T12:24:15.465Z,51.85
2023-04-08T12:26:42.102Z,42.55
2023-04-08T12:29:11.610Z,43.60
2023-04-08T12:31:38.304Z,44.80
2023-04-08T12:34:05.015Z,42.58
2023-04-08T12:36:31.887Z,40.53
2023-04-08T12:38:58.595Z,41.70
2023-04-08T12:41:25.211Z,36.92
2023-04-08T12:43:59.070Z,39.17
2023-04-08T12:46:25.871Z,35.30
2023-04-08T12:49:03.279Z,32.00
2023-04-08T12:51:32.192Z,27.58
2023-04-08T12:54:04.960Z,23.40
2023-04-08T12:56:32.341Z,28.27
2023-04-08T12:58:59.790Z,41.03
2023-04-08T13:01:26.560Z,25.10
2023-04-08T13:03:54.215Z,24.52
2023-04-08T13:06:20.924Z,19.02
2023-04-08T13:08:47.779Z,28.38
2023-04-08T13:11:14.655Z,24.77
2023-04-08T13:13:41.603Z,22.65
2023-04-08T13:16:17.836Z,27.58
2023-04-08T13:18:44.856Z,23.48
2023-04-08T13:21:11.491Z,23.23
2023-04-08T13:23:38.895Z,18.42
2023-04-08T13:26:06.600Z,21.20
2023-04-08T13:28:35.402Z,21.88
2023-04-08T13:31:05.672Z,23.55
2023-04-08T13:33:32.366Z,20.73
2023-04-08T13:35:59.091Z,17.63
2023-04-08T13:38:26.093Z,16.60
2023-04-08T13:40:53.545Z,20.23
2023-04-08T13:43:20.582Z,20.50
2023-04-08T13:45:47.655Z,22.35
2023-04-08T13:48:14.411Z,24.50
2023-04-08T13:50:42.274Z,19.80
2023-04-08T13:53:08.847Z,22.15
2023-04-08T13:55:35.776Z,22.30
2023-04-08T13:58:03.601Z,21.83
2023-04-08T14:00:33.596Z,22.52
2023-04-08T14:03:00.550Z,22.65
2023-04-08T14:05:27.223Z,21.20
2023-04-08T14:07:53.965Z,19.52
2023-04-08T14:10:21.032Z,19.27
2023-04-08T14:12:47.739Z,18.77
2023-04-08T14:15:14.529Z,16.45
2023-04-08T14:17:42.127Z,21.25
2023-04-08T14:20:09.141Z,20.30
2023-04-08T14:22:36.010Z,20.40
2023-04-08T14:25:02.968Z,17.90
2023-04-08T14:27:29.602Z,23.15
2023-04-08T14:29:56.387Z,20.23
2023-04-08T14:32:23.045Z,19.02
2023-04-08T14:34:49.653Z,18.42
2023-04-08T14:37:17.780Z,20.88
2023-04-08T14:39:44.702Z,22.38
2023-04-08T14:42:11.310Z,21.75
2023-04-08T14:44:37.851Z,23.42
2023-04-08T14:47:04.442Z,18.75
2023-04-08T14:49:31.035Z,16.63
2023-04-08T14:51:57.622Z,24.83
2023-04-08T14:54:24.307Z,22.55
2023-04-08T14:56:50.867Z,20.27
2023-04-08T14:59:18.137Z,22.60
2023-04-08T15:01:45.103Z,25.08
2023-04-08T15:04:11.958Z,18.27
2023-04-08T15:06:40.729Z,18.92
2023-04-08T15:09:07.455Z,26.17
2023-04-08T15:11:34.005Z,27.60
2023-04-08T15:14:00.659Z,25.58
2023-04-08T15:16:27.325Z,27.85
2023-04-08T15:18:54.937Z,29.25
2023-04-08T15:21:22.811Z,28.13
2023-04-08T15:23:49.566Z,29.70
2023-04-08T15:26:16.285Z,33.72
2023-04-08T15:28:43.274Z,34.92
2023-04-08T15:31:11.477Z,30.38
2023-04-08T15:33:41.426Z,29.42
2023-04-08T15:36:09.183Z,31.77
2023-04-08T15:38:36.303Z,28.77
2023-04-08T15:41:03.048Z,30.52
2023-04-08T15:43:30.448Z,29.00
2023-04-08T15:45:57.059Z,33.20
2023-04-08T15:48:23.641Z,30.45
2023-04-08T15:50:50.282Z,32.10
2023-04-08T15:53:16.937Z,32.60
2023-04-08T15:55:43.465Z,35.78
2023-04-08T15:58:10.396Z,40.30
2023-04-08T16:00:37.508Z,37.30
2023-04-08T16:03:05.419Z,37.85
2023-04-08T16:05:34.210Z,37.00
2023-04-08T16:08:00.992Z,41.35
2023-04-08T16:10:27.632Z,35.03
2023-04-08T16:12:54.211Z,47.53
2023-04-08T16:15:20.827Z,40.15
2023-04-08T16:17:53.692Z,42.42
2023-04-08T16:20:22.131Z,44.80
2023-04-08T16:22:50.201Z,39.90
2023-04-08T16:25:17.777Z,37.05
2023-04-08T16:27:44.523Z,38.72
2023-04-08T16:30:11.936Z,37.90
2023-04-08T16:32:38.671Z,37.92
2023-04-08T16:35:06.005Z,35.45
2023-04-08T16:37:33.460Z,29.67
2023-04-08T16:40:03.627Z,30.65
2023-04-08T16:42:30.700Z,33.72
2023-04-08T16:44:58.043Z,33.80
2023-04-08T16:47:25.090Z,37.33
2023-04-08T16:49:52.857Z,38.80
2023-04-08T16:52:19.460Z,34.30
2023-04-08T16:54:46.220Z,40.10
2023-04-08T16:57:13.568Z,38.70
2023-04-08T16:59:40.519Z,37.78
2023-04-08T17:02:08.129Z,37.35
2023-04-08T17:04:34.927Z,37.42
2023-04-08T17:07:01.650Z,34.75
2023-04-08T17:09:28.780Z,39.15
2023-04-08T17:11:56.077Z,34.47
2023-04-08T17:14:22.946Z,40.70
2023-04-08T17:16:49.785Z,38.90
2023-04-08T17:19:16.761Z,37.00
2023-04-08T17:21:46.570Z,38.67
2023-04-08T17:24:13.730Z,35.75
2023-04-08T17:26:43.561Z,36.78
2023-04-08T17:29:10.713Z,33.08
2023-04-08T17:31:37.778Z,32.10
2023-04-08T17:34:04.864Z,35.75
2023-04-08T17:36:31.954Z,35.75
2023-04-08T17:38:58.773Z,33.65
2023-04-08T17:41:39.060Z,34.60
2023-04-08T17:44:06.719Z,32.90
2023-04-08T17:46:34.242Z,34.42
2023-04-08T17:49:01.972Z,37.05
2023-04-08T17:51:30.183Z,39.35
2023-04-08T17:53:56.809Z,40.40
2023-04-08T17:56:24.609Z,41.55
2023-04-08T17:58:51.527Z,48.28
2023-04-08T18:01:18.358Z,50.17
2023-04-08T18:03:45.293Z,45.28
2023-04-08T18:06:11.984Z,50.88
2023-04-08T18:08:38.791Z,47.70
2023-04-08T18:11:09.553Z,49.25
2023-04-08T18:13:36.393Z,54.53
2023-04-08T18:16:06.679Z,54.42
2023-04-08T18:18:33.517Z,55.25
2023-04-08T18:21:07.409Z,55.50
2023-04-08T18:23:34.069Z,56.58
2023-04-08T18:26:01.168Z,59.75
2023-04-08T18:28:31.416Z,56.90
2023-04-08T18:31:01.728Z,54.25
2023-04-08T18:33:28.469Z,56.85
2023-04-08T18:35:56.132Z,60.40
2023-04-08T18:38:24.526Z,52.03
2023-04-08T18:40:51.289Z,56.00
2023-04-08T18:43:18.008Z,55.92
2023-04-08T18:45:45.656Z,58.38
2023-04-08T18:48:12.402Z,54.85
2023-04-08T18:50:40.163Z,57.83
2023-04-08T18:53:06.850Z,52.70
2023-04-08T18:55:38.657Z,56.55
2023-04-08T18:58:06.515Z,51.40
2023-04-08T19:00:33.475Z,53.28
2023-04-08T19:03:03.702Z,52.67
2023-04-08T19:05:32.881Z,55.05
2023-04-08T19:08:03.700Z,55.65
2023-04-08T19:10:34.469Z,50.47
2023-04-08T19:13:06.050Z,37.35
2023-04-08T19:15:33.092Z,51.78
2023-04-08T19:18:01.085Z,46.58
2023-04-08T19:20:28.616Z,48.22
2023-04-08T19:22:55.967Z,42.22
2023-04-08T19:25:22.605Z,41.67
2023-04-08T19:27:49.871Z,44.35
2023-04-08T19:30:16.756Z,38.30
2023-04-08T19:32:43.516Z,41.03
2023-04-08T19:35:13.372Z,41.17
2023-04-08T19:37:40.411Z,36.65
2023-04-08T19:40:08.588Z,42.70
2023-04-08T19:42:35.421Z,39.97
2023-04-08T19:45:05.196Z,37.60
2023-04-08T19:47:32.178Z,43.13
2023-04-08T19:49:59.905Z,42.85
2023-04-08T19:52:26.830Z,39.85
2023-04-08T19:54:53.637Z,39.63
2023-04-08T19:57:20.624Z,39.08
2023-04-08T19:59:52.533Z,42.08
2023-04-08T20:02:24.837Z,39.88
2023-04-08T20:05:02.115Z,42.08
2023-04-08T20:07:32.856Z,38.90
2023-04-08T20:10:00.203Z,39.25
2023-04-08T20:12:30.485Z,39.83
2023-04-08T20:14:59.838Z,35.90
2023-04-08T20:17:33.171Z,40.65
2023-04-08T20:20:04.226Z,40.13
2023-04-08T20:22:32.619Z,40.28
2023-04-08T20:25:08.891Z,43.30
2023-04-08T20:27:40.287Z,40.30
2023-04-08T20:30:20.486Z,39.70
2023-04-08T20:32:47.203Z,37.88
2023-04-08T20:35:14.340Z,39.08
2023-04-08T20:37:42.052Z,37.97
2023-04-08T20:40:09.454Z,39.03
2023-04-08T20:42:36.585Z,37.20
2023-04-08T20:45:03.918Z,40.92
2023-04-08T20:47:31.361Z,39.15
2023-04-08T20:49:58.414Z,38.42
2023-04-08T20:52:25.580Z,38.40
2023-04-08T20:54:52.309Z,42.42
2023-04-08T20:57:19.499Z,39.55
2023-04-08T20:59:46.301Z,41.08
2023-04-08T21:02:14.086Z,38.00
2023-04-08T21:04:40.859Z,38.95
2023-04-08T21:07:07.503Z,42.50
2023-04-08T21:09:34.120Z,41.50
2023-04-08T21:12:07.406Z,44.47
2023-04-08T21:14:34.719Z,43.03
2023-04-08T21:17:01.584Z,50.40
2023-04-08T21:19:28.449Z,46.92
2023-04-08T21:21:55.192Z,52.47
2023-04-08T21:24:21.764Z,51.10
2023-04-08T21:26:48.408Z,50.13
2023-04-08T21:29:15.091Z,53.22
2023-04-08T21:31:42.181Z,53.17
2023-04-08T21:34:08.906Z,55.30
2023-04-08T21:36:35.775Z,51.47
2023-04-08T21:39:02.585Z,57.78
2023-04-08T21:41:30.591Z,51.60
2023-04-08T21:44:01.232Z,53.10
2023-04-08T21:46:28.285Z,60.58
2023-04-08T21:48:55.471Z,57.55
2023-04-08T21:51:22.278Z,62.42
2023-04-08T21:53:50.728Z,63.20
2023-04-08T21:56:18.325Z,62.38
2023-04-08T21:58:45.489Z,60.33
2023-04-08T22:01:12.243Z,59.17
2023-04-08T22:03:39.234Z,58.55
2023-04-08T22:06:09.692Z,55.22
2023-04-08T22:08:37.487Z,62.38
2023-04-08T22:11:08.764Z,61.63
2023-04-08T22:16:01.999Z,63.47
2023-04-08T22:18:28.623Z,62.35
2023-04-08T22:20:55.448Z,67.90
2023-04-08T22:23:22.024Z,65.07
2023-04-08T22:25:50.594Z,61.40
2023-04-08T22:28:18.013Z,62.60
2023-04-08T22:30:46.480Z,63.92
2023-04-08T22:33:13.402Z,63.33
2023-04-08T22:35:40.470Z,62.30
2023-04-08T22:38:07.098Z,65.18
2023-04-08T22:40:36.114Z,61.50
2023-04-08T22:43:03.414Z,70.18
2023-04-08T22:45:30.348Z,69.10
2023-04-08T22:47:57.105Z,66.90
2023-04-08T22:50:23.798Z,66.78
2023-04-08T22:52:50.446Z,65.00
2023-04-08T22:55:17.188Z,61.85
2023-04-08T22:57:43.919Z,61.65
2023-04-08T23:00:11.363Z,58.55
2023-04-08T23:02:38.065Z,57.80
2023-04-08T23:05:05.526Z,63.05
2023-04-08T23:07:32.421Z,58.45
2023-04-08T23:09:58.946Z,57.75
2023-04-08T23:12:25.728Z,62.50
2023-04-08T23:14:52.294Z,64.82
2023-04-08T23:17:18.993Z,63.55
2023-04-08T23:19:45.758Z,69.15
2023-04-08T23:22:12.337Z,71.28
2023-04-08T23:24:38.901Z,63.90
2023-04-08T23:27:05.625Z,66.80
2023-04-08T23:29:32.633Z,62.60
2023-04-08T23:31:59.388Z,70.50
2023-04-08T23:34:26.005Z,75.22
2023-04-08T23:36:52.532Z,76.28
2023-04-08T23:39:19.913Z,67.40
2023-04-08T23:41:46.544Z,77.07
2023-04-08T23:44:13.091Z,74.40
2023-04-08T23:46:39.768Z,70.18
2023-04-08T23:49:06.513Z,75.10
2023-04-08T23:51:33.120Z,73.10
2023-04-08T23:53:59.621Z,76.90
2023-04-08T23:56:26.192Z,71.95
2023-04-08T23:58:52.949Z,70.82
